Norfolk, NE

5:45 PM CDT on May 22, 2015 (GMT -0500)
Stefan Memorial | | Change Station
CLOSE
Current Station
Airport
Location: Norfolk,
Elevation: 1549 ft
Nearby Weather Stations

Elev 1549 ft 41.99 °N, 97.44 °W | Updated 49 minutes ago

Rain
Rain
54 °F
Feels Like 54 °F
N
6
Wind Variable Wind from East

Today
High -- | Low -- °F
--% Chance of Precip.
Yesterday
High -- | Low -- °F
Precip. -- in
6:03 AM 8:50 PM
Waxing Crescent, 24% visible
Pressure 30.25 in
Visibility 10.0 miles
Clouds Mostly Cloudy 6000 ft
Overcast 7500 ft
Dew Point 48 °F
Humidity 80%
Rainfall 0.15 in
Snow Depth Not available.
UV 2 out of 12
Pollen 8.10 out of 12
Air Quality Not available.
Flu Activity Sporadic
METAR KOFK 222156Z AUTO 10005KT 10SM -RA BKN060 OVC075 12/09 A3023 RMK AO2 SLP241 P0012 T01220089

More Conditions Fewer Conditions

Pressure 30.25 in
Visibility 10.0 miles
Clouds Mostly Cloudy 6000 ft
Overcast 7500 ft
Dew Point 48 °F
Humidity 80%
Rainfall 0.15 in
Snow Depth Not available.
UV 2 out of 12
Pollen 8.10 out of 12
Air Quality Not available.
Flu Activity Sporadic
METAR KOFK 222156Z AUTO 10005KT 10SM -RA BKN060 OVC075 12/09 A3023 RMK AO2 SLP241 P0012 T01220089

More Conditions Fewer Conditions

Nowcast | as of 3:41 PM CDT on May 22, 2015

A band of light rain is lifting north across the area from northeast into east central Nebraska and western Iowa. The rain does not last long...but some light rainfall amounts from a trace to a few hundredths of an inch. Some brief gusty winds of 10 to 20 mph are possible as the rain moves in. Another area of light rain will continue to develop from central Nebraska into northeast Nebraska this evening with additional light amounts possible.

×

10-Day Weather Forecast

Almanac

Astronomy

May. 22, 2015 Rise Set
Actual Time
Civil Twilight
Nautical Twilight
Astronomical Twilight
Moon
Length of Visible Light
Length of Day
Tomorrow will be .
, % of the Moon is Illuminated

Today's Extremes

State Highs State Lows

Community

WunderPhotos

Upload Photos

1,823,323 photos uploaded!

WunderBlogs® & News

Nearby

Air Quality

  Air Quality AQ Index Pollutant
Not available.

Snow Depth

Station Depth Elevation

Earthquake Activity

City Distance Mag. Time & Date
Minimum magnitude displayed is 2.5.

Coastal Water Temperatures

Place Temperature

Stations

Nearby Weather Stations

Station Location Temp. Windchill Dew Point Humidity Wind Precip. Elev Updated Type